Time;durP1;ratioP1;P1;durP2;ratioP2;P2;SDS_P1;SDS_P2;PMS_P1;PMS_P2;Temp;Humidity;BMP_temperature;BMP_pressure;BME280_temperature;BME280_humidity;BME280_pressure;Samples;Min_cycle;Max_cycle;Signal;HPM_P1;HPM_P2
2023/09/18 00:00:16;;;;;;;3.70;3.40;;;23.90;99.90;;;;;;4995072;28;20978;-52
2023/09/18 00:02:43;;;;;;;4.70;3.67;;;23.90;99.90;;;;;;4996913;28;20470;-55
2023/09/18 00:05:10;;;;;;;3.40;3.10;;;23.80;99.90;;;;;;4997725;28;21089;-54
2023/09/18 00:07:37;;;;;;;3.60;3.20;;;23.80;99.90;;;;;;4996846;28;20497;-55
2023/09/18 00:10:04;;;;;;;4.20;3.83;;;23.90;99.90;;;;;;4997058;28;20848;-52
2023/09/18 00:12:31;;;;;;;4.10;3.40;;;23.80;99.90;;;;;;4996094;28;20474;-55
2023/09/18 00:14:59;;;;;;;3.83;3.50;;;23.90;99.90;;;;;;4995967;28;20474;-56
2023/09/18 00:17:25;;;;;;;4.20;3.40;;;23.90;99.90;;;;;;4999627;28;20477;-52
2023/09/18 00:19:53;;;;;;;5.33;4.43;;;23.90;99.90;;;;;;5001198;28;20906;-56
2023/09/18 00:22:20;;;;;;;4.27;3.80;;;23.90;99.90;;;;;;4998807;28;20470;-51
2023/09/18 00:24:47;;;;;;;3.90;3.50;;;23.80;99.90;;;;;;4999687;28;20496;-56
2023/09/18 00:27:15;;;;;;;4.00;3.60;;;23.80;99.90;;;;;;5000208;28;20461;-53
2023/09/18 00:29:42;;;;;;;3.73;3.10;;;23.80;99.90;;;;;;5003171;28;20453;-52
2023/09/18 00:32:10;;;;;;;3.37;3.07;;;23.80;99.90;;;;;;5003200;28;20534;-56
2023/09/18 00:34:37;;;;;;;3.37;3.07;;;23.80;99.90;;;;;;5001939;28;20462;-60
2023/09/18 00:37:04;;;;;;;4.13;3.67;;;23.80;99.90;;;;;;5002028;28;20465;-52
2023/09/18 00:39:31;;;;;;;4.63;3.60;;;23.80;99.90;;;;;;5004293;28;20966;-53
2023/09/18 00:41:58;;;;;;;4.00;3.70;;;23.80;99.90;;;;;;5002424;28;20469;-54
2023/09/18 00:44:26;;;;;;;3.77;3.47;;;23.80;99.90;;;;;;5001083;28;20471;-58
2023/09/18 00:46:54;;;;;;;3.53;3.23;;;23.80;99.90;;;;;;5002183;28;20500;-52
2023/09/18 00:49:23;;;;;;;4.00;3.60;;;23.90;99.90;;;;;;5001323;28;21231;-60
2023/09/18 00:51:51;;;;;;;7.03;4.50;;;23.80;99.90;;;;;;5001595;28;20472;-59
2023/09/18 00:54:20;;;;;;;4.53;3.23;;;23.80;99.90;;;;;;5003284;28;20480;-52
2023/09/18 00:56:48;;;;;;;3.50;3.20;;;23.80;99.90;;;;;;5002127;28;20500;-55
2023/09/18 00:59:15;;;;;;;3.63;3.33;;;23.80;99.90;;;;;;4997149;28;20824;-50
2023/09/18 01:01:42;;;;;;;3.73;3.43;;;23.80;99.90;;;;;;5013441;22;20450;-56
2023/09/18 01:04:10;;;;;;;4.27;3.70;;;23.80;99.90;;;;;;5020088;28;20866;-55
2023/09/18 01:06:38;;;;;;;3.80;3.50;;;23.80;99.90;;;;;;5020215;28;20470;-56
2023/09/18 01:09:11;;;;;;;5.50;4.20;;;23.80;99.90;;;;;;5021042;28;20461;-56
2023/09/18 01:11:45;;;;;;;3.67;3.37;;;23.80;99.90;;;;;;5021432;28;20472;-58
2023/09/18 01:14:19;;;;;;;4.20;3.23;;;23.80;99.90;;;;;;5021158;28;20507;-56
2023/09/18 01:16:54;;;;;;;3.90;3.50;;;23.80;99.90;;;;;;5019132;28;20505;-59
2023/09/18 01:19:36;;;;;;;3.90;3.10;;;23.80;99.90;;;;;;5019514;28;20957;-53
2023/09/18 01:22:04;;;;;;;3.10;2.87;;;23.80;99.90;;;;;;5022082;28;20465;-54
2023/09/18 01:24:33;;;;;;;3.37;3.07;;;23.80;99.90;;;;;;5019720;28;21012;-57
2023/09/18 01:27:00;;;;;;;3.50;3.20;;;23.80;99.90;;;;;;5020392;28;20466;-57
2023/09/18 01:29:27;;;;;;;3.90;3.50;;;23.80;99.90;;;;;;5021783;28;20464;-58
2023/09/18 01:31:54;;;;;;;4.27;3.30;;;23.80;99.90;;;;;;5020628;28;20450;-52
2023/09/18 01:34:24;;;;;;;3.43;2.67;;;23.80;99.90;;;;;;5021802;28;20461;-55
2023/09/18 01:36:52;;;;;;;3.10;2.80;;;23.80;99.90;;;;;;5017681;28;20484;-57
2023/09/18 01:39:20;;;;;;;3.33;3.03;;;23.80;99.90;;;;;;5021269;28;20471;-52
2023/09/18 01:41:48;;;;;;;3.57;2.70;;;23.80;99.90;;;;;;5017563;28;21044;-52
2023/09/18 01:44:15;;;;;;;3.80;3.50;;;23.80;99.90;;;;;;5019766;28;20477;-54
2023/09/18 01:46:44;;;;;;;3.50;3.20;;;23.80;99.90;;;;;;5017584;28;20464;-56
2023/09/18 01:49:11;;;;;;;3.77;3.30;;;23.80;99.90;;;;;;5017499;28;20468;-54
2023/09/18 01:51:38;;;;;;;4.40;3.53;;;23.80;99.90;;;;;;5017502;28;20468;-56
2023/09/18 01:54:04;;;;;;;3.67;3.27;;;23.80;99.90;;;;;;5020594;28;20716;-52
2023/09/18 01:56:31;;;;;;;4.07;3.43;;;23.80;99.90;;;;;;5016330;28;20470;-54
2023/09/18 01:58:59;;;;;;;4.10;3.10;;;23.80;99.90;;;;;;5019466;28;20465;-53
2023/09/18 02:01:26;;;;;;;3.77;3.47;;;23.80;99.90;;;;;;5020760;28;20465;-52
2023/09/18 02:03:53;;;;;;;3.53;3.23;;;23.80;99.90;;;;;;5018806;28;21006;-54
2023/09/18 02:06:19;;;;;;;4.20;2.97;;;23.80;99.90;;;;;;5015660;28;20482;-55
2023/09/18 02:08:46;;;;;;;4.00;3.60;;;23.80;99.90;;;;;;5018388;28;20854;-54
2023/09/18 02:11:13;;;;;;;3.43;3.13;;;23.80;99.90;;;;;;5015042;28;20470;-57
2023/09/18 02:13:39;;;;;;;3.73;3.00;;;23.80;99.90;;;;;;5012657;28;20823;-58
2023/09/18 02:16:08;;;;;;;3.73;3.30;;;23.80;99.90;;;;;;5017900;28;20535;-55
2023/09/18 02:18:34;;;;;;;3.13;2.83;;;23.80;99.90;;;;;;5014393;28;20465;-56
2023/09/18 02:21:01;;;;;;;3.60;3.33;;;23.80;99.90;;;;;;5018053;28;20457;-58
2023/09/18 02:23:28;;;;;;;3.53;3.23;;;23.80;99.90;;;;;;5017973;28;20476;-54
2023/09/18 02:25:58;;;;;;;3.60;3.30;;;23.80;99.90;;;;;;5015686;28;20485;-54
2023/09/18 02:28:25;;;;;;;4.70;3.50;;;23.80;99.90;;;;;;5016472;28;20475;-55
2023/09/18 02:30:52;;;;;;;3.67;3.33;;;23.80;99.90;;;;;;5016411;28;20503;-55
2023/09/18 02:33:20;;;;;;;3.50;3.20;;;23.70;99.90;;;;;;5017835;28;20883;-54
2023/09/18 02:35:47;;;;;;;3.93;3.63;;;23.80;99.90;;;;;;5016293;28;20468;-55
2023/09/18 02:38:13;;;;;;;3.77;3.30;;;23.80;99.90;;;;;;5018628;28;20823;-54
2023/09/18 02:40:40;;;;;;;3.77;3.43;;;23.80;99.90;;;;;;5016932;28;20905;-54
2023/09/18 02:43:07;;;;;;;3.73;3.43;;;23.80;99.90;;;;;;5015950;28;20473;-55
2023/09/18 02:45:34;;;;;;;5.07;3.50;;;23.80;99.90;;;;;;5013623;28;20480;-52
2023/09/18 02:48:00;;;;;;;3.13;2.83;;;23.70;99.90;;;;;;5017384;28;20457;-55
2023/09/18 02:50:28;;;;;;;3.23;2.93;;;23.80;99.90;;;;;;5015200;28;20470;-58
2023/09/18 02:52:55;;;;;;;3.33;3.13;;;23.80;99.90;;;;;;5017361;28;20545;-55
2023/09/18 02:55:22;;;;;;;3.40;3.10;;;23.80;99.90;;;;;;5019089;28;21276;-52
2023/09/18 02:57:48;;;;;;;3.33;3.13;;;23.80;99.90;;;;;;5017163;28;21112;-55
2023/09/18 03:00:16;;;;;;;3.33;3.03;;;23.80;99.90;;;;;;5018731;28;20827;-57
2023/09/18 03:02:42;;;;;;;3.43;3.13;;;23.80;99.90;;;;;;5016132;28;20479;-56
2023/09/18 03:05:10;;;;;;;3.30;2.90;;;23.80;99.90;;;;;;5017342;28;20484;-53
2023/09/18 03:07:38;;;;;;;3.47;3.17;;;23.80;99.90;;;;;;5018659;28;20471;-55
2023/09/18 03:10:06;;;;;;;4.13;3.73;;;23.70;99.90;;;;;;5019803;28;20510;-58
2023/09/18 03:12:33;;;;;;;3.27;2.97;;;23.80;99.90;;;;;;5015192;28;21003;-55
2023/09/18 03:15:00;;;;;;;3.40;3.20;;;23.70;99.90;;;;;;5015281;28;20466;-57
2023/09/18 03:17:27;;;;;;;3.47;3.17;;;23.80;99.90;;;;;;5018015;28;20464;-57
2023/09/18 03:19:53;;;;;;;3.53;3.23;;;23.70;99.90;;;;;;5015565;28;20469;-59
2023/09/18 03:22:20;;;;;;;3.40;3.10;;;23.70;99.90;;;;;;5016633;28;20469;-55
2023/09/18 03:24:48;;;;;;;3.87;3.47;;;23.70;99.90;;;;;;5015269;28;20488;-56
2023/09/18 03:27:15;;;;;;;3.03;2.83;;;23.70;99.90;;;;;;5016833;28;20466;-57
2023/09/18 03:29:42;;;;;;;3.57;3.27;;;23.80;99.90;;;;;;5017523;28;20468;-58
2023/09/18 03:32:11;;;;;;;3.07;2.77;;;23.70;99.90;;;;;;5017495;28;20473;-53
2023/09/18 03:34:38;;;;;;;3.83;2.97;;;23.70;99.90;;;;;;5016071;28;20909;-56
2023/09/18 03:37:05;;;;;;;3.37;3.07;;;23.70;99.90;;;;;;5015014;28;20471;-56
2023/09/18 03:39:32;;;;;;;3.83;3.40;;;23.70;99.90;;;;;;5018571;28;20461;-59
2023/09/18 03:42:00;;;;;;;3.73;3.07;;;23.80;99.90;;;;;;5015023;28;20456;-55
2023/09/18 03:44:27;;;;;;;2.90;2.70;;;23.70;99.90;;;;;;5013528;28;20466;-54
2023/09/18 03:46:53;;;;;;;3.40;2.97;;;23.70;99.90;;;;;;5017798;28;20465;-53
2023/09/18 03:49:20;;;;;;;3.03;2.70;;;23.70;99.90;;;;;;5017932;28;20457;-57
2023/09/18 03:51:47;;;;;;;3.10;2.80;;;23.70;99.90;;;;;;5014520;28;20465;-54
2023/09/18 03:54:14;;;;;;;3.37;2.93;;;23.70;99.90;;;;;;5015472;28;20463;-57
2023/09/18 03:56:41;;;;;;;3.60;3.30;;;23.70;99.90;;;;;;5018420;28;20462;-55
2023/09/18 03:59:09;;;;;;;3.50;3.20;;;23.70;99.90;;;;;;5016870;28;20461;-56
2023/09/18 04:01:36;;;;;;;3.10;2.90;;;23.70;99.90;;;;;;5016435;28;20484;-53
2023/09/18 04:04:03;;;;;;;2.70;2.50;;;23.70;99.90;;;;;;5014649;28;20468;-54
2023/09/18 04:06:44;;;;;;;3.07;2.87;;;23.70;99.90;;;;;;5017469;28;20491;-57
2023/09/18 04:09:11;;;;;;;3.17;2.87;;;23.70;99.90;;;;;;5017417;28;20512;-55
2023/09/18 04:11:38;;;;;;;3.10;2.90;;;23.70;99.90;;;;;;5014654;28;20854;-56
2023/09/18 04:14:05;;;;;;;3.23;2.93;;;23.70;99.90;;;;;;5014629;28;20479;-58
2023/09/18 04:16:35;;;;;;;3.00;2.80;;;23.70;99.90;;;;;;5016301;28;20467;-52
2023/09/18 04:19:02;;;;;;;3.40;3.10;;;23.70;99.90;;;;;;5016643;28;20462;-57
2023/09/18 04:21:29;;;;;;;4.37;3.27;;;23.70;99.90;;;;;;5013286;28;20466;-54
2023/09/18 04:23:57;;;;;;;3.90;3.07;;;23.70;99.90;;;;;;5015821;28;20474;-53
2023/09/18 04:26:24;;;;;;;2.87;2.67;;;23.60;99.90;;;;;;5015306;28;21025;-55
2023/09/18 04:28:50;;;;;;;2.80;2.60;;;23.70;99.90;;;;;;5010507;28;20565;-59
2023/09/18 04:31:17;;;;;;;2.50;2.30;;;23.70;99.90;;;;;;5012594;28;20457;-54
2023/09/18 04:33:46;;;;;;;3.13;2.83;;;23.70;99.90;;;;;;5014955;28;20523;-57
2023/09/18 04:36:12;;;;;;;3.00;2.80;;;23.70;99.90;;;;;;5014279;28;20519;-56
2023/09/18 04:38:39;;;;;;;3.03;2.73;;;23.70;99.90;;;;;;5014930;28;20554;-57
2023/09/18 04:41:06;;;;;;;2.70;2.50;;;23.70;99.90;;;;;;5014744;28;21638;-56
2023/09/18 04:43:34;;;;;;;2.87;2.57;;;23.60;99.90;;;;;;5014764;28;20497;-58
2023/09/18 04:46:02;;;;;;;3.10;2.90;;;23.70;99.90;;;;;;5011628;28;20486;-56
2023/09/18 04:48:29;;;;;;;2.97;2.67;;;23.70;99.90;;;;;;5016976;28;20463;-55
2023/09/18 04:50:58;;;;;;;2.73;2.53;;;23.70;99.90;;;;;;5012239;28;21390;-58
2023/09/18 04:53:25;;;;;;;3.50;3.20;;;23.70;99.90;;;;;;5015480;28;20564;-57
2023/09/18 04:55:52;;;;;;;2.97;2.77;;;23.70;99.90;;;;;;5014796;28;20472;-57
2023/09/18 04:58:18;;;;;;;3.30;2.83;;;23.70;99.90;;;;;;5015199;28;21027;-57
2023/09/18 05:00:46;;;;;;;2.53;2.30;;;23.70;99.90;;;;;;5012881;28;20482;-54
2023/09/18 05:03:13;;;;;;;3.00;2.63;;;23.60;99.90;;;;;;5019660;28;20826;-56
2023/09/18 05:05:40;;;;;;;2.70;2.50;;;23.70;99.90;;;;;;5017842;28;20503;-52
2023/09/18 05:08:08;;;;;;;2.67;2.43;;;23.70;99.90;;;;;;5017771;28;20464;-53
2023/09/18 05:10:35;;;;;;;2.33;2.00;;;23.60;99.90;;;;;;5019372;28;20499;-58
2023/09/18 05:13:02;;;;;;;2.90;2.70;;;23.70;99.90;;;;;;5020537;28;20463;-57
2023/09/18 05:15:30;;;;;;;2.90;2.70;;;23.70;99.90;;;;;;5013028;28;20559;-57
2023/09/18 05:17:58;;;;;;;3.33;2.50;;;23.60;99.90;;;;;;5017562;28;20554;-56
2023/09/18 05:20:25;;;;;;;2.73;2.50;;;23.70;99.90;;;;;;5019364;28;20469;-54
2023/09/18 05:22:53;;;;;;;2.83;2.63;;;23.60;99.90;;;;;;5017786;28;20822;-53
2023/09/18 05:25:22;;;;;;;2.33;2.17;;;23.70;99.90;;;;;;5017313;28;20880;-56
2023/09/18 05:27:54;;;;;;;2.20;2.00;;;23.70;99.90;;;;;;5017856;28;20462;-54
2023/09/18 05:30:29;;;;;;;2.60;2.40;;;23.60;99.90;;;;;;5019230;28;20465;-55
2023/09/18 05:32:56;;;;;;;2.93;2.73;;;23.70;99.90;;;;;;5019006;28;20465;-55
2023/09/18 05:35:23;;;;;;;2.90;2.23;;;23.70;99.90;;;;;;5017261;28;20479;-54
2023/09/18 05:37:50;;;;;;;3.60;2.90;;;23.70;99.90;;;;;;5017355;28;20468;-56
2023/09/18 05:40:17;;;;;;;2.20;2.00;;;23.70;99.90;;;;;;5016492;28;20820;-53
2023/09/18 05:42:45;;;;;;;2.97;2.77;;;23.70;99.90;;;;;;5016019;28;20465;-53
2023/09/18 05:45:12;;;;;;;2.70;2.40;;;23.70;99.90;;;;;;5017489;28;20481;-55
2023/09/18 05:47:39;;;;;;;2.80;2.40;;;23.60;99.90;;;;;;5017289;28;20472;-55
2023/09/18 05:50:08;;;;;;;2.93;2.73;;;23.70;99.90;;;;;;5018058;28;20826;-55
2023/09/18 05:52:35;;;;;;;2.90;2.70;;;23.70;99.90;;;;;;5016184;28;20475;-54
2023/09/18 05:55:02;;;;;;;2.70;2.23;;;23.60;99.90;;;;;;5016906;28;20938;-54
2023/09/18 05:57:29;;;;;;;3.23;2.70;;;23.70;99.90;;;;;;5019472;28;20472;-55
2023/09/18 05:59:58;;;;;;;3.37;3.17;;;23.60;99.90;;;;;;5016830;28;20470;-60
2023/09/18 06:02:24;;;;;;;4.63;2.93;;;23.70;99.90;;;;;;5019687;28;21435;-54
2023/09/18 06:04:56;;;;;;;2.10;1.90;;;23.70;99.90;;;;;;5018282;28;20462;-57
2023/09/18 06:07:23;;;;;;;2.80;2.47;;;23.60;99.90;;;;;;5015167;28;20465;-55
2023/09/18 06:09:50;;;;;;;2.90;2.70;;;23.70;99.90;;;;;;5017938;28;20494;-54
2023/09/18 06:12:16;;;;;;;2.83;2.63;;;23.70;99.90;;;;;;5015986;28;20471;-52
2023/09/18 06:14:43;;;;;;;2.60;2.40;;;23.60;99.90;;;;;;5015865;28;20945;-53
2023/09/18 06:17:11;;;;;;;2.70;2.50;;;23.70;99.90;;;;;;5019781;28;20971;-58
2023/09/18 06:19:38;;;;;;;2.83;2.47;;;23.70;99.90;;;;;;5017493;28;20464;-52
2023/09/18 06:22:07;;;;;;;2.83;2.63;;;23.70;99.90;;;;;;5019477;28;20816;-55
2023/09/18 06:24:34;;;;;;;2.50;2.30;;;23.60;99.90;;;;;;5018790;28;20469;-55
2023/09/18 06:27:01;;;;;;;2.63;2.43;;;23.70;99.90;;;;;;5020898;28;20507;-56
2023/09/18 06:29:28;;;;;;;2.20;2.07;;;23.70;99.90;;;;;;5016402;28;20468;-58
2023/09/18 06:31:55;;;;;;;3.00;2.80;;;23.70;99.90;;;;;;5019961;28;20815;-54
2023/09/18 06:34:23;;;;;;;3.30;3.00;;;23.70;99.90;;;;;;5019251;28;20539;-57
2023/09/18 06:36:50;;;;;;;2.93;2.73;;;23.60;99.90;;;;;;5018881;28;20491;-58
2023/09/18 06:39:16;;;;;;;2.67;2.47;;;23.60;99.90;;;;;;5017481;28;20651;-59
2023/09/18 06:41:43;;;;;;;3.40;2.60;;;23.60;99.90;;;;;;5014303;28;20506;-58
2023/09/18 06:44:10;;;;;;;3.50;2.53;;;23.70;99.90;;;;;;5016508;28;20465;-53
2023/09/18 06:46:37;;;;;;;6.30;2.50;;;23.60;99.90;;;;;;5013548;28;20534;-59
2023/09/18 06:49:03;;;;;;;3.50;3.07;;;23.60;99.90;;;;;;5014103;28;20481;-55
2023/09/18 06:51:31;;;;;;;3.90;2.57;;;23.60;99.90;;;;;;5016949;28;20461;-56
2023/09/18 06:53:58;;;;;;;3.90;2.60;;;23.70;99.90;;;;;;5008770;28;20970;-58
2023/09/18 06:56:25;;;;;;;4.03;2.30;;;23.70;99.90;;;;;;5013918;28;20474;-52
2023/09/18 06:58:52;;;;;;;3.80;2.90;;;23.70;99.90;;;;;;5016527;28;20718;-59
2023/09/18 07:01:19;;;;;;;3.40;2.67;;;23.70;99.90;;;;;;5019930;28;20452;-53
2023/09/18 07:03:46;;;;;;;5.40;2.80;;;23.70;99.90;;;;;;5012919;28;20469;-58
2023/09/18 07:06:14;;;;;;;4.57;3.27;;;23.70;99.90;;;;;;5006293;28;20756;-57
2023/09/18 07:08:42;;;;;;;4.23;3.20;;;23.70;99.90;;;;;;5015200;28;20462;-55
2023/09/18 07:11:09;;;;;;;2.87;2.57;;;23.70;99.90;;;;;;5016535;28;20826;-57
2023/09/18 07:13:36;;;;;;;3.10;2.70;;;23.70;99.90;;;;;;5010848;28;20465;-52
2023/09/18 07:16:04;;;;;;;5.57;3.37;;;23.70;99.90;;;;;;5008284;28;20826;-53
2023/09/18 07:18:31;;;;;;;8.27;3.17;;;23.70;99.90;;;;;;5019739;28;20496;-50
2023/09/18 07:20:57;;;;;;;7.63;2.67;;;23.70;99.90;;;;;;5014701;28;20466;-53
2023/09/18 07:23:24;;;;;;;6.53;2.70;;;23.70;99.90;;;;;;5013540;28;20472;-61
2023/09/18 07:25:52;;;;;;;7.93;3.60;;;23.70;99.90;;;;;;5013987;28;20483;-54
2023/09/18 07:28:19;;;;;;;12.27;3.33;;;23.70;99.90;;;;;;5013022;28;20474;-56
2023/09/18 07:30:46;;;;;;;12.93;4.40;;;23.70;99.90;;;;;;5015889;28;20468;-51
2023/09/18 07:33:17;;;;;;;4.33;3.10;;;23.70;99.90;;;;;;5018059;28;20461;-55
2023/09/18 07:35:47;;;;;;;7.47;2.90;;;23.70;99.90;;;;;;5014186;28;20462;-56
2023/09/18 07:38:14;;;;;;;5.73;2.90;;;23.70;99.90;;;;;;5018558;28;20556;-53
2023/09/18 07:40:41;;;;;;;6.80;3.27;;;23.70;99.90;;;;;;5013009;28;20462;-54
2023/09/18 07:43:09;;;;;;;3.13;2.73;;;23.70;99.90;;;;;;5013951;28;20466;-54
2023/09/18 07:45:36;;;;;;;5.53;3.37;;;23.70;99.90;;;;;;5013806;28;20468;-51
2023/09/18 07:48:03;;;;;;;5.50;3.50;;;23.70;99.90;;;;;;5015701;28;20457;-56
2023/09/18 07:50:31;;;;;;;5.30;3.60;;;23.70;99.90;;;;;;5010490;28;20470;-54
2023/09/18 07:52:58;;;;;;;7.57;4.03;;;23.70;99.90;;;;;;5013918;28;21100;-57
2023/09/18 07:55:25;;;;;;;5.10;3.53;;;23.70;99.90;;;;;;5013951;28;20909;-57
2023/09/18 07:57:53;;;;;;;4.60;3.13;;;23.70;99.90;;;;;;5016119;28;20468;-56
2023/09/18 08:00:22;;;;;;;4.73;2.83;;;23.80;99.90;;;;;;5013476;28;20976;-56
2023/09/18 08:02:50;;;;;;;6.33;2.70;;;23.70;99.90;;;;;;5014695;28;21451;-54
2023/09/18 08:05:16;;;;;;;9.17;3.10;;;23.70;99.90;;;;;;5014626;28;20588;-52
2023/09/18 08:07:43;;;;;;;9.30;3.00;;;23.70;99.90;;;;;;5008772;28;20862;-54
2023/09/18 08:10:12;;;;;;;7.43;3.13;;;23.70;99.90;;;;;;5014048;28;20497;-54
2023/09/18 08:12:39;;;;;;;6.60;2.87;;;23.70;99.90;;;;;;5013445;28;20461;-61
2023/09/18 08:15:07;;;;;;;3.53;2.90;;;23.70;99.90;;;;;;5012782;28;20460;-55
2023/09/18 08:17:35;;;;;;;4.97;2.97;;;23.70;99.90;;;;;;5015929;28;20746;-54
2023/09/18 08:20:07;;;;;;;5.43;2.67;;;23.70;99.90;;;;;;5011328;28;20475;-53
2023/09/18 08:22:33;;;;;;;7.50;3.73;;;23.70;99.90;;;;;;5018592;28;20944;-57
2023/09/18 08:25:00;;;;;;;5.60;3.00;;;23.70;99.90;;;;;;5011946;28;20466;-53
2023/09/18 08:27:28;;;;;;;8.73;4.20;;;23.70;99.90;;;;;;5010854;28;20573;-57
2023/09/18 08:29:55;;;;;;;5.60;3.47;;;23.70;99.90;;;;;;5013642;28;20755;-57
2023/09/18 08:32:22;;;;;;;5.60;4.17;;;23.70;99.90;;;;;;5017809;28;20465;-57
2023/09/18 08:34:50;;;;;;;5.17;3.00;;;23.70;99.90;;;;;;5018200;28;20477;-53
2023/09/18 08:37:16;;;;;;;7.00;3.83;;;23.70;99.90;;;;;;5020023;28;20476;-55
2023/09/18 08:39:43;;;;;;;7.47;3.30;;;23.70;99.90;;;;;;5021230;28;20488;-56
2023/09/18 08:42:11;;;;;;;3.87;2.37;;;23.70;99.90;;;;;;5019822;28;20448;-53
2023/09/18 08:44:39;;;;;;;8.50;3.57;;;23.70;99.90;;;;;;5022176;28;20984;-55
2023/09/18 08:47:07;;;;;;;5.23;3.33;;;23.70;99.90;;;;;;5021743;28;20493;-57
2023/09/18 08:49:35;;;;;;;5.60;2.83;;;23.70;99.90;;;;;;5022668;28;20480;-60
2023/09/18 08:52:04;;;;;;;5.47;3.13;;;23.70;99.90;;;;;;5021448;28;20473;-59
2023/09/18 08:54:31;;;;;;;7.03;3.33;;;23.70;99.90;;;;;;5016690;28;20971;-61
2023/09/18 08:56:58;;;;;;;4.97;2.80;;;23.70;99.90;;;;;;5022022;28;20458;-62
2023/09/18 08:59:27;;;;;;;4.30;2.70;;;23.70;99.90;;;;;;5019720;28;20473;-57
2023/09/18 09:01:54;;;;;;;9.53;4.27;;;23.70;99.90;;;;;;5015092;28;20477;-55
2023/09/18 09:04:21;;;;;;;3.87;2.50;;;23.80;99.90;;;;;;5021201;28;20921;-58
2023/09/18 09:06:47;;;;;;;7.57;3.27;;;23.80;99.90;;;;;;5020230;28;20487;-56
2023/09/18 09:09:19;;;;;;;6.50;2.70;;;23.80;99.90;;;;;;5018951;28;20470;-55
2023/09/18 09:11:50;;;;;;;3.90;2.80;;;23.80;99.90;;;;;;5013350;28;20592;-59
2023/09/18 09:14:21;;;;;;;6.17;3.00;;;23.70;99.90;;;;;;5019778;28;20491;-54
2023/09/18 09:16:49;;;;;;;3.10;2.50;;;23.80;99.90;;;;;;5019751;28;20476;-55
2023/09/18 09:19:17;;;;;;;4.27;2.80;;;23.70;99.90;;;;;;5021224;28;20458;-59
2023/09/18 09:21:44;;;;;;;3.30;2.70;;;23.80;99.90;;;;;;5018764;28;20476;-58
2023/09/18 09:24:13;;;;;;;4.53;3.13;;;23.80;99.90;;;;;;5022510;28;20441;-54
2023/09/18 09:26:42;;;;;;;5.10;3.30;;;23.70;99.90;;;;;;5016699;28;20516;-56
2023/09/18 09:29:20;;;;;;;3.87;3.27;;;23.70;99.90;;;;;;5022482;28;20466;-56
2023/09/18 09:31:48;;;;;;;9.50;2.97;;;23.70;99.90;;;;;;5021224;28;20469;-53
2023/09/18 09:34:26;;;;;;;2.63;2.43;;;23.80;99.90;;;;;;5021490;28;20453;-53
2023/09/18 09:36:54;;;;;;;5.43;2.40;;;23.80;99.90;;;;;;5019360;28;20465;-58
2023/09/18 09:39:24;;;;;;;3.70;2.40;;;23.80;99.90;;;;;;5022174;28;20715;-58
2023/09/18 09:41:52;;;;;;;5.93;2.97;;;23.80;99.90;;;;;;5021237;28;20442;-54
2023/09/18 09:44:20;;;;;;;4.40;3.23;;;23.70;99.90;;;;;;5018261;28;20466;-53
2023/09/18 09:46:48;;;;;;;5.20;2.40;;;23.80;99.90;;;;;;5020724;28;20488;-52
2023/09/18 09:49:16;;;;;;;5.30;2.80;;;23.70;99.90;;;;;;5018963;28;20535;-59
2023/09/18 09:51:42;;;;;;;4.20;2.80;;;23.80;99.90;;;;;;5019681;28;20958;-55
2023/09/18 09:54:11;;;;;;;3.20;2.27;;;23.70;99.90;;;;;;5016727;28;20465;-59
2023/09/18 09:56:46;;;;;;;3.77;2.77;;;23.80;99.90;;;;;;5019708;28;20721;-57
2023/09/18 09:59:15;;;;;;;7.27;2.73;;;23.80;99.90;;;;;;5017082;28;20462;-56
2023/09/18 10:01:44;;;;;;;4.73;3.10;;;23.80;99.90;;;;;;5018276;28;20465;-59
2023/09/18 10:04:13;;;;;;;5.83;2.77;;;23.80;99.90;;;;;;5019933;28;20453;-58
2023/09/18 10:06:44;;;;;;;2.87;2.27;;;23.70;99.90;;;;;;5013108;28;20478;-56
2023/09/18 10:09:12;;;;;;;2.73;2.47;;;23.80;99.90;;;;;;5018351;28;20810;-58
2023/09/18 10:11:44;;;;;;;5.70;3.00;;;23.70;99.90;;;;;;5016776;28;20461;-56
2023/09/18 10:14:16;;;;;;;3.63;2.40;;;23.70;99.90;;;;;;5018554;28;20461;-57
2023/09/18 10:16:50;;;;;;;6.70;2.13;;;23.80;99.90;;;;;;5015746;28;20477;-57
2023/09/18 10:19:25;;;;;;;5.20;2.77;;;23.80;99.90;;;;;;5020039;28;20453;-57
2023/09/18 10:22:05;;;;;;;4.33;2.40;;;23.80;99.90;;;;;;5017646;28;20476;-60
2023/09/18 10:24:36;;;;;;;4.50;3.53;;;23.70;99.90;;;;;;5015823;28;20454;-57
2023/09/18 10:27:06;;;;;;;2.37;2.17;;;23.80;99.90;;;;;;5004843;28;20628;-56
2023/09/18 10:29:35;;;;;;;2.67;2.10;;;23.80;99.90;;;;;;5008983;28;20459;-54
2023/09/18 10:32:04;;;;;;;2.33;1.80;;;23.70;99.90;;;;;;5013465;28;20969;-54
2023/09/18 10:34:33;;;;;;;5.83;2.60;;;23.70;99.90;;;;;;5016558;28;21032;-57
2023/09/18 10:37:01;;;;;;;5.73;2.33;;;23.80;99.90;;;;;;5017079;28;20476;-54
2023/09/18 10:39:30;;;;;;;5.27;2.60;;;23.80;99.90;;;;;;5018887;28;21369;-54
2023/09/18 10:42:01;;;;;;;4.83;2.40;;;23.80;99.90;;;;;;5019541;28;20460;-57
2023/09/18 10:44:29;;;;;;;4.73;2.20;;;23.80;99.90;;;;;;5017886;28;20463;-55
2023/09/18 10:46:58;;;;;;;4.30;2.23;;;23.70;99.90;;;;;;5018722;28;20517;-56
2023/09/18 10:49:26;;;;;;;4.80;2.40;;;23.80;99.90;;;;;;5017577;28;20474;-57
2023/09/18 10:51:55;;;;;;;2.83;2.30;;;23.80;99.90;;;;;;5014844;28;20473;-58
2023/09/18 10:54:24;;;;;;;3.27;2.20;;;23.80;99.90;;;;;;5013910;28;20991;-53
2023/09/18 10:56:52;;;;;;;8.80;2.27;;;23.80;99.90;;;;;;5011529;28;20472;-56
2023/09/18 10:59:19;;;;;;;3.27;2.03;;;23.80;99.90;;;;;;5014213;28;20464;-58
2023/09/18 11:01:47;;;;;;;2.80;2.00;;;23.80;99.90;;;;;;5015555;28;21041;-53
2023/09/18 11:04:19;;;;;;;5.30;2.90;;;23.80;99.90;;;;;;5009713;28;21068;-54
2023/09/18 11:07:09;;;;;;;3.80;2.53;;;23.80;99.90;;;;;;5012023;28;20540;-56
2023/09/18 11:09:44;;;;;;;5.37;2.20;;;23.80;99.90;;;;;;5012553;28;20658;-52
2023/09/18 11:12:12;;;;;;;2.70;2.00;;;23.80;99.90;;;;;;5014304;28;20469;-56
2023/09/18 11:14:51;;;;;;;3.73;2.00;;;23.80;99.90;;;;;;5012117;28;20511;-58
2023/09/18 11:17:33;;;;;;;4.50;2.40;;;23.80;99.90;;;;;;5008282;28;20470;-57
2023/09/18 11:20:11;;;;;;;2.67;2.47;;;23.80;99.90;;;;;;5014235;28;21028;-58
2023/09/18 11:22:39;;;;;;;6.23;3.03;;;23.80;99.90;;;;;;5003112;28;20548;-59
2023/09/18 11:25:35;;;;;;;3.10;2.80;;;23.80;99.90;;;;;;5015287;28;20500;-59
2023/09/18 11:28:02;;;;;;;4.90;2.07;;;23.80;99.90;;;;;;5013693;28;20481;-56
2023/09/18 11:30:29;;;;;;;7.43;2.03;;;23.80;99.90;;;;;;5015882;28;20465;-59
2023/09/18 11:32:56;;;;;;;3.17;1.67;;;23.80;99.90;;;;;;5013932;28;20552;-62
2023/09/18 11:35:26;;;;;;;6.50;2.23;;;23.80;99.90;;;;;;5012002;28;20469;-61
2023/09/18 11:38:06;;;;;;;2.70;1.93;;;23.80;99.90;;;;;;5012135;28;20473;-63
2023/09/18 11:40:38;;;;;;;2.53;2.17;;;23.80;99.90;;;;;;5015133;28;20466;-58
2023/09/18 11:43:25;;;;;;;5.20;1.90;;;23.80;99.90;;;;;;5013266;28;21085;-64
2023/09/18 11:45:53;;;;;;;10.33;1.50;;;23.90;99.90;;;;;;5016102;28;20450;-63
2023/09/18 11:48:20;;;;;;;3.50;1.90;;;23.90;99.90;;;;;;5014541;28;20536;-58
2023/09/18 11:50:50;;;;;;;3.27;1.70;;;23.90;99.90;;;;;;5015606;28;21009;-61
2023/09/18 11:53:19;;;;;;;1.80;1.40;;;23.90;99.90;;;;;;5015388;28;20525;-59
2023/09/18 11:55:46;;;;;;;4.07;1.70;;;23.90;99.90;;;;;;5017063;28;20472;-64
2023/09/18 11:58:13;;;;;;;4.17;2.13;;;24.00;99.90;;;;;;5015687;28;20478;-60
2023/09/18 12:00:46;;;;;;;4.10;1.60;;;24.00;99.90;;;;;;5016789;28;20894;-60
2023/09/18 12:03:28;;;;;;;5.10;2.20;;;24.00;99.90;;;;;;5018629;28;20442;-61
2023/09/18 12:05:59;;;;;;;2.93;1.60;;;24.00;99.90;;;;;;5015597;28;20508;-62
2023/09/18 12:08:27;;;;;;;3.30;2.60;;;24.00;99.90;;;;;;5016875;28;20509;-62
2023/09/18 12:10:54;;;;;;;2.90;1.67;;;24.00;99.90;;;;;;5016325;28;20520;-62
2023/09/18 12:13:21;;;;;;;2.10;1.83;;;24.10;99.90;;;;;;5021094;28;20473;-63
2023/09/18 12:15:49;;;;;;;1.80;1.30;;;24.10;99.90;;;;;;5018320;28;20465;-62
2023/09/18 12:18:16;;;;;;;1.97;1.60;;;24.10;99.90;;;;;;5018781;28;21006;-62
2023/09/18 12:20:48;;;;;;;3.10;1.60;;;24.20;99.90;;;;;;5020189;28;20545;-60
2023/09/18 12:23:16;;;;;;;1.70;1.60;;;24.20;99.90;;;;;;5018957;28;20463;-61
2023/09/18 12:25:46;;;;;;;2.07;1.63;;;24.20;99.90;;;;;;5015738;28;20461;-63
2023/09/18 12:28:15;;;;;;;2.60;1.80;;;24.20;99.90;;;;;;5019651;28;20482;-61
2023/09/18 12:30:42;;;;;;;2.30;1.57;;;24.20;99.90;;;;;;5021242;28;20458;-59
2023/09/18 12:33:08;;;;;;;3.00;1.60;;;24.20;99.90;;;;;;5014176;28;20466;-60
2023/09/18 12:35:35;;;;;;;3.27;1.80;;;24.20;99.90;;;;;;5019094;28;20461;-57
2023/09/18 12:38:04;;;;;;;3.63;1.73;;;24.30;99.90;;;;;;5017782;28;20799;-57
2023/09/18 12:40:33;;;;;;;1.97;1.40;;;24.30;99.90;;;;;;5020822;28;20950;-57
2023/09/18 12:43:01;;;;;;;3.27;1.90;;;24.30;99.90;;;;;;5016408;28;20932;-59
2023/09/18 12:45:29;;;;;;;2.67;1.80;;;24.30;99.90;;;;;;5015933;28;20459;-62
2023/09/18 12:47:58;;;;;;;2.43;1.47;;;24.40;99.90;;;;;;5018697;28;20482;-60
2023/09/18 12:50:25;;;;;;;4.70;1.73;;;24.40;99.90;;;;;;5020897;28;20475;-60